Terminal Aerodrome Forecast
Issued by NWS

Home | Current Version | Previous Version | Text Only | Print | Product List | Glossary On
Versions: 1 2 3 4 5 6 7 8 9 10 11 12 13 14 15 16 17 18 19 20
000
FTUS43 KAPX 110524
TAFTVC
TAF
KTVC 110524Z 1106/1206 VRB03KT P6SM -SHSN OVC035
     FM111500 14006KT 3SM -SN OVC030
     FM111800 15010KT 1 1/2SM -SN OVC022
     FM120300 15006KT 3SM -SN OVC015
     FM120500 18008KT 5SM -SN OVC010=

USA.gov is the U.S. government's official web portal to all federal, state and local government web resources and services.